sensor_id;sensor_type;location;lat;lon;timestamp;P1;durP1;ratioP1;P2;durP2;ratioP2
43529;SDS011;55654;50.966;6.878;2023-05-10T00:00:53;40.87;;;17.90;;
43529;SDS011;55654;50.966;6.878;2023-05-10T00:03:19;54.83;;;19.20;;
43529;SDS011;55654;50.966;6.878;2023-05-10T00:05:45;64.33;;;19.87;;
43529;SDS011;55654;50.966;6.878;2023-05-10T00:08:11;43.30;;;18.23;;
43529;SDS011;55654;50.966;6.878;2023-05-10T00:10:37;66.97;;;21.40;;
43529;SDS011;55654;50.966;6.878;2023-05-10T00:13:03;80.50;;;22.43;;
43529;SDS011;55654;50.966;6.878;2023-05-10T00:15:31;70.03;;;21.23;;
43529;SDS011;55654;50.966;6.878;2023-05-10T00:17:57;88.40;;;23.23;;
43529;SDS011;55654;50.966;6.878;2023-05-10T00:20:23;106.57;;;25.27;;
43529;SDS011;55654;50.966;6.878;2023-05-10T00:22:49;74.60;;;24.13;;
43529;SDS011;55654;50.966;6.878;2023-05-10T00:25:15;72.23;;;24.03;;
43529;SDS011;55654;50.966;6.878;2023-05-10T00:27:41;81.67;;;24.43;;
43529;SDS011;55654;50.966;6.878;2023-05-10T00:30:08;97.50;;;26.67;;
43529;SDS011;55654;50.966;6.878;2023-05-10T00:32:34;109.37;;;28.27;;
43529;SDS011;55654;50.966;6.878;2023-05-10T00:35:02;73.27;;;25.57;;
43529;SDS011;55654;50.966;6.878;2023-05-10T00:37:28;99.87;;;27.63;;
43529;SDS011;55654;50.966;6.878;2023-05-10T00:39:54;81.80;;;26.73;;
43529;SDS011;55654;50.966;6.878;2023-05-10T00:42:20;90.70;;;28.53;;
43529;SDS011;55654;50.966;6.878;2023-05-10T00:44:48;113.70;;;28.67;;
43529;SDS011;55654;50.966;6.878;2023-05-10T00:47:14;88.20;;;27.53;;
43529;SDS011;55654;50.966;6.878;2023-05-10T00:49:41;100.53;;;30.97;;
43529;SDS011;55654;50.966;6.878;2023-05-10T00:52:09;96.97;;;30.10;;
43529;SDS011;55654;50.966;6.878;2023-05-10T00:54:38;105.27;;;30.13;;
43529;SDS011;55654;50.966;6.878;2023-05-10T00:57:04;101.47;;;30.47;;
43529;SDS011;55654;50.966;6.878;2023-05-10T00:59:30;96.87;;;28.97;;
43529;SDS011;55654;50.966;6.878;2023-05-10T01:01:56;91.77;;;28.30;;
43529;SDS011;55654;50.966;6.878;2023-05-10T01:04:23;124.23;;;30.17;;
43529;SDS011;55654;50.966;6.878;2023-05-10T01:06:52;83.00;;;29.43;;
43529;SDS011;55654;50.966;6.878;2023-05-10T01:15:16;92.87;;;28.87;;
43529;SDS011;55654;50.966;6.878;2023-05-10T01:17:44;95.87;;;28.23;;
43529;SDS011;55654;50.966;6.878;2023-05-10T01:20:10;105.10;;;28.67;;
43529;SDS011;55654;50.966;6.878;2023-05-10T01:25:18;95.40;;;27.30;;
43529;SDS011;55654;50.966;6.878;2023-05-10T01:30:59;63.73;;;23.27;;
43529;SDS011;55654;50.966;6.878;2023-05-10T01:33:39;58.03;;;22.07;;
43529;SDS011;55654;50.966;6.878;2023-05-10T01:44:16;71.73;;;24.63;;
43529;SDS011;55654;50.966;6.878;2023-05-10T01:46:43;73.10;;;24.20;;
43529;SDS011;55654;50.966;6.878;2023-05-10T01:49:22;75.87;;;24.97;;
43529;SDS011;55654;50.966;6.878;2023-05-10T01:51:50;79.93;;;24.90;;
43529;SDS011;55654;50.966;6.878;2023-05-10T01:54:19;73.90;;;24.17;;
43529;SDS011;55654;50.966;6.878;2023-05-10T01:56:47;73.53;;;24.90;;
43529;SDS011;55654;50.966;6.878;2023-05-10T01:59:15;78.13;;;24.43;;
43529;SDS011;55654;50.966;6.878;2023-05-10T02:01:42;69.37;;;24.20;;
43529;SDS011;55654;50.966;6.878;2023-05-10T02:04:13;100.57;;;26.37;;
43529;SDS011;55654;50.966;6.878;2023-05-10T02:06:41;79.23;;;24.20;;
43529;SDS011;55654;50.966;6.878;2023-05-10T02:09:08;72.57;;;22.67;;
43529;SDS011;55654;50.966;6.878;2023-05-10T02:11:37;79.07;;;22.57;;
43529;SDS011;55654;50.966;6.878;2023-05-10T02:14:03;74.53;;;22.00;;
43529;SDS011;55654;50.966;6.878;2023-05-10T02:16:31;62.50;;;19.50;;
43529;SDS011;55654;50.966;6.878;2023-05-10T02:18:57;64.03;;;21.67;;
43529;SDS011;55654;50.966;6.878;2023-05-10T02:21:24;67.57;;;19.70;;
43529;SDS011;55654;50.966;6.878;2023-05-10T02:23:51;54.63;;;17.13;;
43529;SDS011;55654;50.966;6.878;2023-05-10T02:26:17;49.30;;;14.93;;
43529;SDS011;55654;50.966;6.878;2023-05-10T02:28:45;47.40;;;17.47;;
43529;SDS011;55654;50.966;6.878;2023-05-10T02:31:11;48.17;;;16.93;;
43529;SDS011;55654;50.966;6.878;2023-05-10T02:33:40;50.80;;;17.10;;
43529;SDS011;55654;50.966;6.878;2023-05-10T02:36:07;38.73;;;15.63;;
43529;SDS011;55654;50.966;6.878;2023-05-10T02:38:34;51.33;;;16.40;;
43529;SDS011;55654;50.966;6.878;2023-05-10T02:41:01;46.03;;;15.23;;
43529;SDS011;55654;50.966;6.878;2023-05-10T02:43:27;42.60;;;14.67;;
43529;SDS011;55654;50.966;6.878;2023-05-10T02:45:54;48.83;;;15.97;;
43529;SDS011;55654;50.966;6.878;2023-05-10T02:48:20;34.83;;;14.00;;
43529;SDS011;55654;50.966;6.878;2023-05-10T02:50:46;42.23;;;15.93;;
43529;SDS011;55654;50.966;6.878;2023-05-10T02:53:18;36.57;;;13.93;;
43529;SDS011;55654;50.966;6.878;2023-05-10T02:55:44;40.27;;;13.73;;
43529;SDS011;55654;50.966;6.878;2023-05-10T02:58:15;39.93;;;15.20;;
43529;SDS011;55654;50.966;6.878;2023-05-10T03:00:44;42.47;;;14.77;;
43529;SDS011;55654;50.966;6.878;2023-05-10T03:03:11;45.60;;;15.03;;
43529;SDS011;55654;50.966;6.878;2023-05-10T03:05:37;47.20;;;16.50;;
43529;SDS011;55654;50.966;6.878;2023-05-10T03:08:03;35.87;;;15.23;;
43529;SDS011;55654;50.966;6.878;2023-05-10T03:10:32;46.63;;;15.73;;
43529;SDS011;55654;50.966;6.878;2023-05-10T03:15:37;44.55;;;16.00;;
43529;SDS011;55654;50.966;6.878;2023-05-10T03:20:55;47.33;;;15.33;;
43529;SDS011;55654;50.966;6.878;2023-05-10T03:23:26;43.05;;;15.50;;
43529;SDS011;55654;50.966;6.878;2023-05-10T03:25:52;49.97;;;15.67;;
43529;SDS011;55654;50.966;6.878;2023-05-10T03:28:19;52.83;;;15.63;;
43529;SDS011;55654;50.966;6.878;2023-05-10T03:30:46;59.43;;;17.07;;
43529;SDS011;55654;50.966;6.878;2023-05-10T03:33:12;57.17;;;17.40;;
43529;SDS011;55654;50.966;6.878;2023-05-10T03:35:40;56.87;;;17.07;;
43529;SDS011;55654;50.966;6.878;2023-05-10T03:38:06;46.53;;;16.57;;
43529;SDS011;55654;50.966;6.878;2023-05-10T03:40:32;61.93;;;18.07;;
43529;SDS011;55654;50.966;6.878;2023-05-10T03:42:59;64.20;;;18.87;;
43529;SDS011;55654;50.966;6.878;2023-05-10T03:45:25;61.53;;;19.43;;
43529;SDS011;55654;50.966;6.878;2023-05-10T03:47:51;92.27;;;22.07;;
43529;SDS011;55654;50.966;6.878;2023-05-10T03:50:24;67.07;;;20.13;;
43529;SDS011;55654;50.966;6.878;2023-05-10T03:52:51;76.03;;;22.07;;
43529;SDS011;55654;50.966;6.878;2023-05-10T03:55:20;110.97;;;24.83;;
43529;SDS011;55654;50.966;6.878;2023-05-10T03:57:47;89.67;;;24.53;;
43529;SDS011;55654;50.966;6.878;2023-05-10T04:00:14;88.80;;;25.63;;
43529;SDS011;55654;50.966;6.878;2023-05-10T04:02:41;100.47;;;24.93;;
43529;SDS011;55654;50.966;6.878;2023-05-10T04:05:07;107.87;;;25.50;;
43529;SDS011;55654;50.966;6.878;2023-05-10T04:07:33;87.07;;;26.10;;
43529;SDS011;55654;50.966;6.878;2023-05-10T04:09:59;65.33;;;25.03;;
43529;SDS011;55654;50.966;6.878;2023-05-10T04:12:25;75.47;;;25.17;;
43529;SDS011;55654;50.966;6.878;2023-05-10T04:14:51;80.23;;;26.83;;
43529;SDS011;55654;50.966;6.878;2023-05-10T04:17:17;75.77;;;28.77;;
43529;SDS011;55654;50.966;6.878;2023-05-10T04:19:43;77.57;;;28.30;;
43529;SDS011;55654;50.966;6.878;2023-05-10T04:22:09;82.60;;;27.93;;
43529;SDS011;55654;50.966;6.878;2023-05-10T04:24:35;77.70;;;27.40;;
43529;SDS011;55654;50.966;6.878;2023-05-10T04:27:01;75.17;;;26.83;;
43529;SDS011;55654;50.966;6.878;2023-05-10T04:29:30;82.17;;;28.30;;
43529;SDS011;55654;50.966;6.878;2023-05-10T04:31:56;85.47;;;30.67;;
43529;SDS011;55654;50.966;6.878;2023-05-10T04:34:25;90.20;;;31.27;;
43529;SDS011;55654;50.966;6.878;2023-05-10T04:36:51;76.90;;;30.97;;
43529;SDS011;55654;50.966;6.878;2023-05-10T04:39:17;94.53;;;34.00;;
43529;SDS011;55654;50.966;6.878;2023-05-10T04:41:43;87.30;;;33.20;;
43529;SDS011;55654;50.966;6.878;2023-05-10T04:44:09;78.57;;;31.77;;
43529;SDS011;55654;50.966;6.878;2023-05-10T04:46:35;80.90;;;32.83;;
43529;SDS011;55654;50.966;6.878;2023-05-10T04:49:03;89.87;;;35.20;;
43529;SDS011;55654;50.966;6.878;2023-05-10T04:51:29;85.17;;;33.77;;
43529;SDS011;55654;50.966;6.878;2023-05-10T04:53:56;87.03;;;34.60;;
43529;SDS011;55654;50.966;6.878;2023-05-10T04:56:22;76.27;;;31.87;;
43529;SDS011;55654;50.966;6.878;2023-05-10T04:58:48;75.43;;;32.90;;
43529;SDS011;55654;50.966;6.878;2023-05-10T05:01:14;64.17;;;30.47;;
43529;SDS011;55654;50.966;6.878;2023-05-10T05:03:40;81.10;;;33.87;;
43529;SDS011;55654;50.966;6.878;2023-05-10T05:06:07;73.73;;;31.87;;
43529;SDS011;55654;50.966;6.878;2023-05-10T05:08:33;66.17;;;27.67;;
43529;SDS011;55654;50.966;6.878;2023-05-10T05:11:02;61.53;;;27.30;;
43529;SDS011;55654;50.966;6.878;2023-05-10T05:13:28;56.23;;;24.00;;
43529;SDS011;55654;50.966;6.878;2023-05-10T05:15:54;58.83;;;24.70;;
43529;SDS011;55654;50.966;6.878;2023-05-10T05:18:20;60.77;;;25.77;;
43529;SDS011;55654;50.966;6.878;2023-05-10T05:20:46;61.10;;;26.63;;
43529;SDS011;55654;50.966;6.878;2023-05-10T05:23:12;69.70;;;26.30;;
43529;SDS011;55654;50.966;6.878;2023-05-10T05:25:38;44.63;;;23.47;;
43529;SDS011;55654;50.966;6.878;2023-05-10T05:28:04;57.70;;;24.83;;
43529;SDS011;55654;50.966;6.878;2023-05-10T05:30:30;52.67;;;23.40;;
43529;SDS011;55654;50.966;6.878;2023-05-10T05:32:59;49.77;;;22.60;;
43529;SDS011;55654;50.966;6.878;2023-05-10T05:35:25;71.10;;;25.53;;
43529;SDS011;55654;50.966;6.878;2023-05-10T05:37:51;52.77;;;25.67;;
43529;SDS011;55654;50.966;6.878;2023-05-10T05:40:17;59.23;;;26.23;;
43529;SDS011;55654;50.966;6.878;2023-05-10T05:42:45;56.27;;;24.83;;
43529;SDS011;55654;50.966;6.878;2023-05-10T05:45:11;52.83;;;24.63;;
43529;SDS011;55654;50.966;6.878;2023-05-10T05:47:40;56.73;;;25.47;;
43529;SDS011;55654;50.966;6.878;2023-05-10T05:50:06;55.70;;;24.17;;
43529;SDS011;55654;50.966;6.878;2023-05-10T05:52:33;53.30;;;23.07;;
43529;SDS011;55654;50.966;6.878;2023-05-10T05:54:59;52.10;;;22.23;;
43529;SDS011;55654;50.966;6.878;2023-05-10T05:57:25;40.73;;;20.10;;
43529;SDS011;55654;50.966;6.878;2023-05-10T05:59:51;40.87;;;19.47;;
43529;SDS011;55654;50.966;6.878;2023-05-10T06:02:17;40.70;;;18.53;;
43529;SDS011;55654;50.966;6.878;2023-05-10T06:04:43;43.40;;;18.43;;
43529;SDS011;55654;50.966;6.878;2023-05-10T06:07:09;39.07;;;19.33;;
43529;SDS011;55654;50.966;6.878;2023-05-10T06:09:39;41.00;;;18.23;;
43529;SDS011;55654;50.966;6.878;2023-05-10T06:12:05;38.90;;;18.00;;
43529;SDS011;55654;50.966;6.878;2023-05-10T06:14:31;42.60;;;19.07;;
43529;SDS011;55654;50.966;6.878;2023-05-10T06:16:57;51.13;;;19.53;;
43529;SDS011;55654;50.966;6.878;2023-05-10T06:19:24;41.07;;;19.63;;
43529;SDS011;55654;50.966;6.878;2023-05-10T06:21:51;37.57;;;18.77;;
43529;SDS011;55654;50.966;6.878;2023-05-10T06:24:17;38.00;;;18.67;;
43529;SDS011;55654;50.966;6.878;2023-05-10T06:26:43;41.30;;;20.27;;
43529;SDS011;55654;50.966;6.878;2023-05-10T06:29:12;43.27;;;20.43;;
43529;SDS011;55654;50.966;6.878;2023-05-10T06:31:38;41.03;;;20.17;;
43529;SDS011;55654;50.966;6.878;2023-05-10T06:34:04;47.43;;;20.87;;
43529;SDS011;55654;50.966;6.878;2023-05-10T06:36:32;42.33;;;20.13;;
43529;SDS011;55654;50.966;6.878;2023-05-10T06:38:58;51.40;;;22.00;;
43529;SDS011;55654;50.966;6.878;2023-05-10T06:41:24;58.13;;;21.50;;
43529;SDS011;55654;50.966;6.878;2023-05-10T06:43:53;46.13;;;22.93;;
43529;SDS011;55654;50.966;6.878;2023-05-10T06:46:19;51.27;;;23.43;;
43529;SDS011;55654;50.966;6.878;2023-05-10T06:48:45;51.80;;;23.03;;
43529;SDS011;55654;50.966;6.878;2023-05-10T06:51:11;52.53;;;23.37;;
43529;SDS011;55654;50.966;6.878;2023-05-10T06:53:44;51.93;;;23.33;;
43529;SDS011;55654;50.966;6.878;2023-05-10T06:56:10;45.30;;;22.37;;
43529;SDS011;55654;50.966;6.878;2023-05-10T06:58:39;50.83;;;23.33;;
43529;SDS011;55654;50.966;6.878;2023-05-10T07:01:08;58.67;;;25.03;;
43529;SDS011;55654;50.966;6.878;2023-05-10T07:03:34;46.33;;;22.07;;
43529;SDS011;55654;50.966;6.878;2023-05-10T07:06:00;43.13;;;21.27;;
43529;SDS011;55654;50.966;6.878;2023-05-10T07:08:30;43.30;;;20.93;;
43529;SDS011;55654;50.966;6.878;2023-05-10T07:11:00;49.33;;;22.53;;
43529;SDS011;55654;50.966;6.878;2023-05-10T07:13:26;49.57;;;24.63;;
43529;SDS011;55654;50.966;6.878;2023-05-10T07:15:52;51.10;;;24.93;;
43529;SDS011;55654;50.966;6.878;2023-05-10T07:18:18;47.63;;;21.30;;
43529;SDS011;55654;50.966;6.878;2023-05-10T07:20:44;48.43;;;22.90;;
43529;SDS011;55654;50.966;6.878;2023-05-10T07:23:13;53.70;;;22.30;;
43529;SDS011;55654;50.966;6.878;2023-05-10T07:25:48;54.43;;;23.80;;
43529;SDS011;55654;50.966;6.878;2023-05-10T07:28:16;55.70;;;23.57;;
43529;SDS011;55654;50.966;6.878;2023-05-10T07:30:42;47.97;;;23.33;;
43529;SDS011;55654;50.966;6.878;2023-05-10T07:33:11;42.00;;;21.60;;
43529;SDS011;55654;50.966;6.878;2023-05-10T07:35:37;47.10;;;21.20;;
43529;SDS011;55654;50.966;6.878;2023-05-10T07:38:03;52.40;;;22.57;;
43529;SDS011;55654;50.966;6.878;2023-05-10T07:40:29;52.87;;;24.43;;
43529;SDS011;55654;50.966;6.878;2023-05-10T07:42:55;45.33;;;21.43;;
43529;SDS011;55654;50.966;6.878;2023-05-10T07:45:21;46.33;;;22.90;;
43529;SDS011;55654;50.966;6.878;2023-05-10T07:47:47;43.97;;;22.03;;
43529;SDS011;55654;50.966;6.878;2023-05-10T07:50:13;37.43;;;20.60;;
43529;SDS011;55654;50.966;6.878;2023-05-10T07:52:40;42.37;;;19.83;;
43529;SDS011;55654;50.966;6.878;2023-05-10T07:55:11;35.10;;;19.90;;
43529;SDS011;55654;50.966;6.878;2023-05-10T07:57:37;38.80;;;19.30;;
43529;SDS011;55654;50.966;6.878;2023-05-10T08:00:04;31.30;;;16.67;;
43529;SDS011;55654;50.966;6.878;2023-05-10T08:02:31;31.90;;;16.27;;
43529;SDS011;55654;50.966;6.878;2023-05-10T08:05:05;37.90;;;16.60;;
43529;SDS011;55654;50.966;6.878;2023-05-10T08:07:34;43.30;;;17.90;;
43529;SDS011;55654;50.966;6.878;2023-05-10T08:10:00;40.47;;;18.27;;
43529;SDS011;55654;50.966;6.878;2023-05-10T08:12:29;36.63;;;18.27;;
43529;SDS011;55654;50.966;6.878;2023-05-10T08:14:57;42.90;;;17.87;;
43529;SDS011;55654;50.966;6.878;2023-05-10T08:17:23;36.20;;;16.60;;
43529;SDS011;55654;50.966;6.878;2023-05-10T08:19:49;37.97;;;18.07;;
43529;SDS011;55654;50.966;6.878;2023-05-10T08:22:15;33.43;;;14.83;;
43529;SDS011;55654;50.966;6.878;2023-05-10T08:24:41;38.97;;;17.30;;
43529;SDS011;55654;50.966;6.878;2023-05-10T08:27:08;35.60;;;17.23;;
43529;SDS011;55654;50.966;6.878;2023-05-10T08:29:34;31.60;;;15.60;;
43529;SDS011;55654;50.966;6.878;2023-05-10T08:32:07;30.60;;;15.67;;
43529;SDS011;55654;50.966;6.878;2023-05-10T08:34:34;28.67;;;14.77;;
43529;SDS011;55654;50.966;6.878;2023-05-10T08:37:00;26.93;;;16.30;;
43529;SDS011;55654;50.966;6.878;2023-05-10T08:39:29;43.60;;;17.10;;
43529;SDS011;55654;50.966;6.878;2023-05-10T08:41:57;55.27;;;18.83;;
43529;SDS011;55654;50.966;6.878;2023-05-10T08:44:27;42.30;;;17.77;;
43529;SDS011;55654;50.966;6.878;2023-05-10T08:46:53;52.20;;;21.63;;
43529;SDS011;55654;50.966;6.878;2023-05-10T08:49:20;50.00;;;23.50;;
43529;SDS011;55654;50.966;6.878;2023-05-10T08:51:50;74.57;;;28.47;;
43529;SDS011;55654;50.966;6.878;2023-05-10T08:54:17;86.27;;;32.23;;
43529;SDS011;55654;50.966;6.878;2023-05-10T08:56:43;83.70;;;32.97;;
43529;SDS011;55654;50.966;6.878;2023-05-10T08:59:09;87.63;;;34.90;;
43529;SDS011;55654;50.966;6.878;2023-05-10T09:01:37;87.33;;;34.53;;
43529;SDS011;55654;50.966;6.878;2023-05-10T09:04:03;95.47;;;35.43;;
43529;SDS011;55654;50.966;6.878;2023-05-10T09:06:29;90.03;;;34.87;;
43529;SDS011;55654;50.966;6.878;2023-05-10T09:08:57;80.35;;;32.35;;
43529;SDS011;55654;50.966;6.878;2023-05-10T09:11:23;77.17;;;33.70;;
43529;SDS011;55654;50.966;6.878;2023-05-10T09:13:50;89.83;;;33.83;;
43529;SDS011;55654;50.966;6.878;2023-05-10T09:16:16;72.53;;;30.90;;
43529;SDS011;55654;50.966;6.878;2023-05-10T09:18:42;76.07;;;32.23;;
43529;SDS011;55654;50.966;6.878;2023-05-10T09:21:08;77.63;;;32.60;;
43529;SDS011;55654;50.966;6.878;2023-05-10T09:23:35;91.73;;;33.77;;
43529;SDS011;55654;50.966;6.878;2023-05-10T09:26:05;81.67;;;33.73;;
43529;SDS011;55654;50.966;6.878;2023-05-10T09:28:32;68.10;;;28.60;;
43529;SDS011;55654;50.966;6.878;2023-05-10T09:31:03;68.63;;;27.93;;
43529;SDS011;55654;50.966;6.878;2023-05-10T09:33:43;50.07;;;23.27;;
43529;SDS011;55654;50.966;6.878;2023-05-10T09:36:09;45.20;;;22.77;;
43529;SDS011;55654;50.966;6.878;2023-05-10T09:38:44;37.00;;;19.47;;
43529;SDS011;55654;50.966;6.878;2023-05-10T09:41:20;37.03;;;18.37;;
43529;SDS011;55654;50.966;6.878;2023-05-10T09:43:55;32.90;;;19.07;;
43529;SDS011;55654;50.966;6.878;2023-05-10T09:46:21;35.63;;;19.85;;
43529;SDS011;55654;50.966;6.878;2023-05-10T09:48:47;29.70;;;16.95;;
43529;SDS011;55654;50.966;6.878;2023-05-10T09:51:20;26.25;;;14.95;;
43529;SDS011;55654;50.966;6.878;2023-05-10T09:53:46;20.27;;;12.90;;
43529;SDS011;55654;50.966;6.878;2023-05-10T09:56:20;19.67;;;12.32;;
43529;SDS011;55654;50.966;6.878;2023-05-10T09:59:11;21.98;;;13.45;;
43529;SDS011;55654;50.966;6.878;2023-05-10T10:01:39;22.77;;;14.32;;
43529;SDS011;55654;50.966;6.878;2023-05-10T10:04:09;20.73;;;13.57;;
43529;SDS011;55654;50.966;6.878;2023-05-10T10:06:36;20.65;;;12.13;;
43529;SDS011;55654;50.966;6.878;2023-05-10T10:09:02;22.50;;;12.10;;
43529;SDS011;55654;50.966;6.878;2023-05-10T10:11:28;21.10;;;13.00;;
43529;SDS011;55654;50.966;6.878;2023-05-10T10:13:56;16.48;;;11.50;;
43529;SDS011;55654;50.966;6.878;2023-05-10T10:16:22;15.30;;;10.73;;
43529;SDS011;55654;50.966;6.878;2023-05-10T10:18:54;21.40;;;12.10;;
43529;SDS011;55654;50.966;6.878;2023-05-10T10:21:26;15.00;;;9.98;;
43529;SDS011;55654;50.966;6.878;2023-05-10T10:23:52;20.75;;;11.55;;
43529;SDS011;55654;50.966;6.878;2023-05-10T10:26:20;18.75;;;10.80;;
43529;SDS011;55654;50.966;6.878;2023-05-10T10:34:08;19.17;;;10.40;;
43529;SDS011;55654;50.966;6.878;2023-05-10T10:36:45;13.85;;;8.80;;
43529;SDS011;55654;50.966;6.878;2023-05-10T10:39:14;17.67;;;10.07;;
43529;SDS011;55654;50.966;6.878;2023-05-10T10:49:49;15.40;;;9.23;;
43529;SDS011;55654;50.966;6.878;2023-05-10T10:52:25;15.82;;;8.32;;
43529;SDS011;55654;50.966;6.878;2023-05-10T10:55:03;14.35;;;8.07;;
43529;SDS011;55654;50.966;6.878;2023-05-10T11:02:48;16.55;;;10.07;;
43529;SDS011;55654;50.966;6.878;2023-05-10T11:08:06;11.88;;;8.40;;
43529;SDS011;55654;50.966;6.878;2023-05-10T11:10:33;8.40;;;6.30;;
43529;SDS011;55654;50.966;6.878;2023-05-10T11:13:04;14.00;;;7.32;;
43529;SDS011;55654;50.966;6.878;2023-05-10T11:15:35;9.95;;;6.60;;
43529;SDS011;55654;50.966;6.878;2023-05-10T11:18:17;10.98;;;6.35;;
43529;SDS011;55654;50.966;6.878;2023-05-10T11:21:01;9.48;;;5.15;;
43529;SDS011;55654;50.966;6.878;2023-05-10T11:23:30;8.63;;;6.03;;
43529;SDS011;55654;50.966;6.878;2023-05-10T11:25:57;7.88;;;5.22;;
43529;SDS011;55654;50.966;6.878;2023-05-10T11:28:23;6.50;;;5.05;;
43529;SDS011;55654;50.966;6.878;2023-05-10T11:30:53;6.97;;;4.55;;
43529;SDS011;55654;50.966;6.878;2023-05-10T11:33:23;5.03;;;3.78;;
43529;SDS011;55654;50.966;6.878;2023-05-10T11:35:49;4.18;;;3.30;;
43529;SDS011;55654;50.966;6.878;2023-05-10T11:38:15;4.75;;;3.35;;
43529;SDS011;55654;50.966;6.878;2023-05-10T11:40:42;3.65;;;2.60;;
43529;SDS011;55654;50.966;6.878;2023-05-10T11:43:09;3.47;;;2.20;;
43529;SDS011;55654;50.966;6.878;2023-05-10T11:45:36;4.93;;;2.20;;
43529;SDS011;55654;50.966;6.878;2023-05-10T11:48:02;3.45;;;2.00;;
43529;SDS011;55654;50.966;6.878;2023-05-10T11:50:28;2.85;;;1.98;;
43529;SDS011;55654;50.966;6.878;2023-05-10T11:52:55;2.10;;;1.63;;
43529;SDS011;55654;50.966;6.878;2023-05-10T11:55:21;4.78;;;2.40;;
43529;SDS011;55654;50.966;6.878;2023-05-10T11:57:51;3.13;;;2.50;;
43529;SDS011;55654;50.966;6.878;2023-05-10T12:00:17;2.28;;;1.90;;
43529;SDS011;55654;50.966;6.878;2023-05-10T12:02:48;2.50;;;2.13;;
43529;SDS011;55654;50.966;6.878;2023-05-10T12:05:14;3.15;;;1.95;;
43529;SDS011;55654;50.966;6.878;2023-05-10T12:07:45;4.13;;;1.95;;
43529;SDS011;55654;50.966;6.878;2023-05-10T12:10:14;1.80;;;1.50;;
43529;SDS011;55654;50.966;6.878;2023-05-10T12:12:42;3.83;;;2.20;;
43529;SDS011;55654;50.966;6.878;2023-05-10T12:15:13;3.33;;;2.50;;
43529;SDS011;55654;50.966;6.878;2023-05-10T12:17:43;2.83;;;2.40;;
43529;SDS011;55654;50.966;6.878;2023-05-10T12:20:13;2.63;;;2.03;;
43529;SDS011;55654;50.966;6.878;2023-05-10T12:22:40;3.03;;;2.22;;
43529;SDS011;55654;50.966;6.878;2023-05-10T12:25:08;2.75;;;2.20;;
43529;SDS011;55654;50.966;6.878;2023-05-10T12:27:37;2.05;;;1.70;;
43529;SDS011;55654;50.966;6.878;2023-05-10T12:30:03;3.50;;;2.47;;
43529;SDS011;55654;50.966;6.878;2023-05-10T12:32:45;2.55;;;2.25;;
43529;SDS011;55654;50.966;6.878;2023-05-10T12:35:11;3.58;;;2.63;;
43529;SDS011;55654;50.966;6.878;2023-05-10T12:37:39;3.67;;;2.70;;
43529;SDS011;55654;50.966;6.878;2023-05-10T12:40:06;3.45;;;2.08;;
43529;SDS011;55654;50.966;6.878;2023-05-10T12:42:33;1.95;;;1.75;;
43529;SDS011;55654;50.966;6.878;2023-05-10T12:45:03;2.55;;;1.80;;
43529;SDS011;55654;50.966;6.878;2023-05-10T12:47:31;3.47;;;2.05;;
43529;SDS011;55654;50.966;6.878;2023-05-10T12:49:58;3.90;;;2.35;;
43529;SDS011;55654;50.966;6.878;2023-05-10T12:52:25;3.92;;;2.30;;
43529;SDS011;55654;50.966;6.878;2023-05-10T12:54:53;3.20;;;2.28;;
43529;SDS011;55654;50.966;6.878;2023-05-10T12:57:20;2.60;;;2.10;;
43529;SDS011;55654;50.966;6.878;2023-05-10T12:59:46;2.72;;;2.15;;
43529;SDS011;55654;50.966;6.878;2023-05-10T13:02:15;2.58;;;1.80;;
43529;SDS011;55654;50.966;6.878;2023-05-10T13:04:43;1.58;;;1.00;;
43529;SDS011;55654;50.966;6.878;2023-05-10T13:07:12;1.33;;;0.98;;
43529;SDS011;55654;50.966;6.878;2023-05-10T13:09:38;3.83;;;1.65;;
43529;SDS011;55654;50.966;6.878;2023-05-10T13:12:04;3.42;;;2.10;;
43529;SDS011;55654;50.966;6.878;2023-05-10T13:14:31;2.60;;;1.90;;
43529;SDS011;55654;50.966;6.878;2023-05-10T13:16:59;2.95;;;1.40;;
43529;SDS011;55654;50.966;6.878;2023-05-10T13:19:28;1.65;;;1.40;;
43529;SDS011;55654;50.966;6.878;2023-05-10T13:21:54;1.73;;;1.50;;
43529;SDS011;55654;50.966;6.878;2023-05-10T13:24:20;2.50;;;2.08;;
43529;SDS011;55654;50.966;6.878;2023-05-10T13:26:46;2.42;;;1.50;;
43529;SDS011;55654;50.966;6.878;2023-05-10T13:29:13;1.98;;;1.13;;
43529;SDS011;55654;50.966;6.878;2023-05-10T13:31:42;2.80;;;1.00;;
43529;SDS011;55654;50.966;6.878;2023-05-10T13:34:08;5.95;;;1.23;;
43529;SDS011;55654;50.966;6.878;2023-05-10T13:36:34;1.85;;;1.20;;
43529;SDS011;55654;50.966;6.878;2023-05-10T13:39:00;2.15;;;0.88;;
43529;SDS011;55654;50.966;6.878;2023-05-10T13:41:28;1.25;;;1.00;;
43529;SDS011;55654;50.966;6.878;2023-05-10T13:43:57;1.90;;;1.10;;
43529;SDS011;55654;50.966;6.878;2023-05-10T13:46:23;1.73;;;0.90;;
43529;SDS011;55654;50.966;6.878;2023-05-10T13:48:49;1.63;;;0.77;;
43529;SDS011;55654;50.966;6.878;2023-05-10T13:51:15;2.45;;;0.85;;
43529;SDS011;55654;50.966;6.878;2023-05-10T13:53:41;1.80;;;1.02;;
43529;SDS011;55654;50.966;6.878;2023-05-10T13:56:07;2.70;;;0.93;;
43529;SDS011;55654;50.966;6.878;2023-05-10T13:58:34;0.65;;;0.52;;
43529;SDS011;55654;50.966;6.878;2023-05-10T14:01:01;1.00;;;0.60;;
43529;SDS011;55654;50.966;6.878;2023-05-10T14:03:27;0.77;;;0.52;;
43529;SDS011;55654;50.966;6.878;2023-05-10T14:05:53;2.50;;;0.70;;
43529;SDS011;55654;50.966;6.878;2023-05-10T14:08:19;1.45;;;0.75;;
43529;SDS011;55654;50.966;6.878;2023-05-10T14:10:45;1.42;;;0.80;;
43529;SDS011;55654;50.966;6.878;2023-05-10T14:13:11;2.42;;;0.80;;
43529;SDS011;55654;50.966;6.878;2023-05-10T14:15:38;2.10;;;0.75;;
43529;SDS011;55654;50.966;6.878;2023-05-10T14:18:04;0.90;;;0.70;;
43529;SDS011;55654;50.966;6.878;2023-05-10T14:20:30;1.17;;;1.02;;
43529;SDS011;55654;50.966;6.878;2023-05-10T14:22:57;1.88;;;0.90;;
43529;SDS011;55654;50.966;6.878;2023-05-10T14:25:23;1.77;;;0.70;;
43529;SDS011;55654;50.966;6.878;2023-05-10T14:27:49;2.00;;;0.90;;
43529;SDS011;55654;50.966;6.878;2023-05-10T14:30:15;8.32;;;1.63;;
43529;SDS011;55654;50.966;6.878;2023-05-10T14:32:42;2.85;;;0.80;;
43529;SDS011;55654;50.966;6.878;2023-05-10T14:35:08;2.28;;;1.15;;
43529;SDS011;55654;50.966;6.878;2023-05-10T14:37:34;1.95;;;0.75;;
43529;SDS011;55654;50.966;6.878;2023-05-10T14:40:00;1.75;;;0.98;;
43529;SDS011;55654;50.966;6.878;2023-05-10T14:42:26;1.65;;;0.88;;
43529;SDS011;55654;50.966;6.878;2023-05-10T14:44:55;1.70;;;1.02;;
43529;SDS011;55654;50.966;6.878;2023-05-10T14:47:21;1.52;;;1.35;;
43529;SDS011;55654;50.966;6.878;2023-05-10T14:49:48;1.73;;;1.50;;
43529;SDS011;55654;50.966;6.878;2023-05-10T14:52:14;1.77;;;1.40;;
43529;SDS011;55654;50.966;6.878;2023-05-10T14:54:42;4.80;;;1.40;;
43529;SDS011;55654;50.966;6.878;2023-05-10T14:57:08;1.80;;;1.20;;
43529;SDS011;55654;50.966;6.878;2023-05-10T14:59:36;3.53;;;1.85;;
43529;SDS011;55654;50.966;6.878;2023-05-10T15:02:02;1.80;;;1.17;;
43529;SDS011;55654;50.966;6.878;2023-05-10T15:04:29;3.92;;;1.50;;
43529;SDS011;55654;50.966;6.878;2023-05-10T15:06:55;3.35;;;1.40;;
43529;SDS011;55654;50.966;6.878;2023-05-10T15:09:24;4.45;;;1.83;;
43529;SDS011;55654;50.966;6.878;2023-05-10T15:11:50;1.98;;;1.60;;
43529;SDS011;55654;50.966;6.878;2023-05-10T15:14:19;2.05;;;1.45;;
43529;SDS011;55654;50.966;6.878;2023-05-10T15:16:45;4.88;;;1.40;;